createdAt,value
2023-02-11T00:11:57.709Z,1.83
2023-02-11T00:27:40.125Z,1.81
2023-02-11T00:43:22.445Z,1.81
2023-02-11T00:59:04.914Z,2
2023-02-11T01:14:47.362Z,2.29
2023-02-11T01:30:30.143Z,2.35
2023-02-11T01:46:12.981Z,2.43
2023-02-11T02:01:55.988Z,2.48
2023-02-11T02:17:39.117Z,2.6
2023-02-11T02:33:21.995Z,2.7
2023-02-11T02:49:04.961Z,2.85
2023-02-11T03:04:47.263Z,3
2023-02-11T03:20:29.702Z,3.07
2023-02-11T03:36:12.452Z,3.1
2023-02-11T03:51:55.573Z,3.12
2023-02-11T04:07:38.519Z,3.16
2023-02-11T04:23:21.544Z,3.28
2023-02-11T04:39:03.991Z,3.41
2023-02-11T04:54:46.675Z,3.51
2023-02-11T05:10:29.773Z,3.56
2023-02-11T05:26:12.682Z,3.69
2023-02-11T05:41:54.915Z,3.73
2023-02-11T05:57:37.103Z,3.82
2023-02-11T06:13:20.128Z,3.91
2023-02-11T06:29:02.646Z,3.98
2023-02-11T06:44:45.228Z,4.02
2023-02-11T07:00:27.497Z,4.08
2023-02-11T07:16:10.030Z,4.27
2023-02-11T07:31:52.826Z,4.44
2023-02-11T07:47:35.469Z,4.73
2023-02-11T08:03:18.420Z,5
2023-02-11T08:19:00.693Z,5.09
2023-02-11T08:34:43.714Z,5.33
2023-02-11T08:50:26.692Z,5.42
2023-02-11T09:06:09.262Z,5.5
2023-02-11T09:21:52.155Z,5.63
2023-02-11T09:37:35.176Z,5.73
2023-02-11T09:53:17.586Z,5.82
2023-02-11T10:09:00.429Z,5.92
2023-02-11T10:24:43.220Z,6.11
2023-02-11T10:40:26.029Z,6.12
2023-02-11T10:56:08.346Z,6.16
2023-02-11T11:11:50.759Z,6.17
2023-02-11T11:27:33.700Z,6.13
2023-02-11T11:43:16.278Z,6.13
2023-02-11T11:58:58.724Z,6.16
2023-02-11T12:14:40.889Z,6.27
2023-02-11T12:30:23.673Z,6.46
2023-02-11T12:46:06.450Z,6.58
2023-02-11T13:01:49.168Z,6.65
2023-02-11T13:17:31.467Z,6.66
2023-02-11T13:33:14.434Z,6.58
2023-02-11T13:48:57.337Z,6.55
2023-02-11T14:04:39.577Z,6.53
2023-02-11T14:20:22.272Z,6.53
2023-02-11T14:36:05.224Z,6.53
2023-02-11T14:36:52.638Z,6.72
2023-02-11T14:52:35.469Z,6.57
2023-02-11T15:08:18.128Z,6.57
2023-02-11T15:24:00.829Z,6.56
2023-02-11T15:39:43.252Z,6.57
2023-02-11T15:55:25.810Z,6.61
2023-02-11T16:11:08.394Z,6.62
2023-02-11T16:26:51.035Z,6.64
2023-02-11T16:42:34.014Z,6.65
2023-02-11T16:58:16.122Z,6.71
2023-02-11T17:13:58.356Z,6.7
2023-02-11T17:29:40.549Z,6.75
2023-02-11T17:45:23.508Z,6.75
2023-02-11T18:01:06.274Z,6.76
2023-02-11T18:16:48.456Z,6.78
2023-02-11T18:32:31.524Z,6.82
2023-02-11T18:48:14.638Z,6.83
2023-02-11T19:03:57.603Z,6.86
2023-02-11T19:19:40.553Z,6.88
2023-02-11T19:35:23.391Z,6.87
2023-02-11T19:51:05.497Z,6.86
2023-02-11T20:06:48.577Z,6.83
2023-02-11T20:22:31.058Z,6.81
2023-02-11T20:38:13.822Z,6.81
2023-02-11T20:53:56.556Z,6.83
2023-02-11T21:09:39.101Z,6.86
2023-02-11T21:25:21.428Z,6.89
2023-02-11T21:41:03.998Z,6.88
2023-02-11T21:56:46.479Z,6.91
2023-02-11T22:12:28.868Z,6.88
2023-02-11T22:28:11.932Z,6.89
2023-02-11T22:43:54.717Z,6.91
2023-02-11T22:59:37.830Z,6.84
2023-02-11T23:15:20.246Z,6.77
2023-02-11T23:31:03.095Z,6.78
2023-02-11T23:46:45.218Z,6.78
